sensor_id;sensor_type;location;lat;lon;timestamp;pressure;altitude;pressure_sealevel;temperature;humidity
73952;BME280;62304;47.662;18.324;2022-11-15T00:03:25;100753.97;;;6.90;87.32
73952;BME280;62304;47.662;18.324;2022-11-15T00:06:46;100744.41;;;6.67;87.73
73952;BME280;62304;47.662;18.324;2022-11-15T00:10:07;100748.97;;;6.63;87.92
73952;BME280;62304;47.662;18.324;2022-11-15T00:13:29;100744.56;;;6.70;88.00
73952;BME280;62304;47.662;18.324;2022-11-15T00:16:51;100736.00;;;6.63;88.18
73952;BME280;62304;47.662;18.324;2022-11-15T00:20:12;100733.66;;;6.74;88.18
73952;BME280;62304;47.662;18.324;2022-11-15T00:23:35;100734.25;;;6.79;88.39
73952;BME280;62304;47.662;18.324;2022-11-15T00:26:56;100730.03;;;6.82;88.17
73952;BME280;62304;47.662;18.324;2022-11-15T00:30:17;100722.09;;;6.80;88.29
73952;BME280;62304;47.662;18.324;2022-11-15T00:33:39;100708.44;;;6.84;87.77
73952;BME280;62304;47.662;18.324;2022-11-15T00:37:00;100713.28;;;6.66;88.60
73952;BME280;62304;47.662;18.324;2022-11-15T00:40:22;100705.00;;;6.66;88.47
73952;BME280;62304;47.662;18.324;2022-11-15T00:43:43;100706.62;;;6.67;87.99
73952;BME280;62304;47.662;18.324;2022-11-15T00:47:05;100710.41;;;6.63;87.66
73952;BME280;62304;47.662;18.324;2022-11-15T00:50:26;100715.16;;;6.54;87.96
73952;BME280;62304;47.662;18.324;2022-11-15T00:53:48;100714.53;;;6.48;87.85
73952;BME280;62304;47.662;18.324;2022-11-15T00:57:09;100709.38;;;6.47;87.98
73952;BME280;62304;47.662;18.324;2022-11-15T01:00:30;100708.34;;;6.51;87.55
73952;BME280;62304;47.662;18.324;2022-11-15T01:03:51;100708.34;;;6.51;87.44
73952;BME280;62304;47.662;18.324;2022-11-15T01:07:18;100712.94;;;6.47;87.44
73952;BME280;62304;47.662;18.324;2022-11-15T01:10:39;100710.38;;;6.42;87.45
73952;BME280;62304;47.662;18.324;2022-11-15T01:14:02;100701.84;;;6.27;87.41
73952;BME280;62304;47.662;18.324;2022-11-15T01:17:24;100696.41;;;6.18;88.02
73952;BME280;62304;47.662;18.324;2022-11-15T01:20:45;100694.19;;;6.12;88.98
73952;BME280;62304;47.662;18.324;2022-11-15T01:24:07;100694.66;;;6.14;88.35
73952;BME280;62304;47.662;18.324;2022-11-15T01:27:28;100681.91;;;6.09;88.73
73952;BME280;62304;47.662;18.324;2022-11-15T01:30:50;100674.37;;;5.89;90.05
73952;BME280;62304;47.662;18.324;2022-11-15T01:34:11;100677.91;;;5.98;88.96
73952;BME280;62304;47.662;18.324;2022-11-15T01:37:32;100669.81;;;5.93;89.25
73952;BME280;62304;47.662;18.324;2022-11-15T01:40:53;100674.16;;;6.03;88.93
73952;BME280;62304;47.662;18.324;2022-11-15T01:47:55;100670.69;;;6.14;88.08
73952;BME280;62304;47.662;18.324;2022-11-15T01:51:17;100672.94;;;6.12;87.73
73952;BME280;62304;47.662;18.324;2022-11-15T01:54:39;100669.06;;;6.13;87.61
73952;BME280;62304;47.662;18.324;2022-11-15T01:58:03;100662.69;;;6.21;86.98
73952;BME280;62304;47.662;18.324;2022-11-15T02:01:26;100659.00;;;6.17;86.78
73952;BME280;62304;47.662;18.324;2022-11-15T02:04:49;100659.00;;;6.17;86.90
73952;BME280;62304;47.662;18.324;2022-11-15T02:08:10;100647.25;;;6.08;86.77
73952;BME280;62304;47.662;18.324;2022-11-15T02:11:41;100640.19;;;5.90;87.56
73952;BME280;62304;47.662;18.324;2022-11-15T02:15:04;100635.72;;;6.06;87.52
73952;BME280;62304;47.662;18.324;2022-11-15T02:18:35;100632.66;;;6.08;87.21
73952;BME280;62304;47.662;18.324;2022-11-15T02:40:54;100624.19;;;6.13;88.51
73952;BME280;62304;47.662;18.324;2022-11-15T02:44:27;100627.66;;;6.01;88.18
73952;BME280;62304;47.662;18.324;2022-11-15T02:47:54;100638.31;;;5.82;89.17
73952;BME280;62304;47.662;18.324;2022-11-15T02:51:18;100618.72;;;5.75;90.12
73952;BME280;62304;47.662;18.324;2022-11-15T02:54:39;100629.56;;;5.80;89.71
73952;BME280;62304;47.662;18.324;2022-11-15T03:02:52;100627.91;;;5.88;89.75
73952;BME280;62304;47.662;18.324;2022-11-15T03:05:56;100623.28;;;5.71;90.01
73952;BME280;62304;47.662;18.324;2022-11-15T03:10:05;100614.88;;;5.68;90.31
73952;BME280;62304;47.662;18.324;2022-11-15T03:20:33;100620.50;;;5.42;91.26
73952;BME280;62304;47.662;18.324;2022-11-15T03:23:57;100615.56;;;5.56;90.24
73952;BME280;62304;47.662;18.324;2022-11-15T03:27:24;100605.00;;;5.29;92.45
73952;BME280;62304;47.662;18.324;2022-11-15T03:30:49;100611.66;;;5.20;92.32
73952;BME280;62304;47.662;18.324;2022-11-15T03:34:32;100609.22;;;5.18;92.78
73952;BME280;62304;47.662;18.324;2022-11-15T03:41:25;100620.94;;;5.53;90.74
73952;BME280;62304;47.662;18.324;2022-11-15T03:44:59;100613.28;;;5.58;90.03
73952;BME280;62304;47.662;18.324;2022-11-15T03:48:27;100604.13;;;5.46;90.98
73952;BME280;62304;47.662;18.324;2022-11-15T03:51:50;100602.72;;;5.40;90.24
73952;BME280;62304;47.662;18.324;2022-11-15T03:55:16;100598.72;;;5.29;90.45
73952;BME280;62304;47.662;18.324;2022-11-15T03:58:38;100588.31;;;5.34;90.36
73952;BME280;62304;47.662;18.324;2022-11-15T04:01:59;100591.06;;;5.34;90.92
73952;BME280;62304;47.662;18.324;2022-11-15T04:05:21;100579.81;;;5.56;90.28
73952;BME280;62304;47.662;18.324;2022-11-15T04:08:42;100575.91;;;5.57;90.31
73952;BME280;62304;47.662;18.324;2022-11-15T04:12:03;100571.81;;;5.63;89.97
73952;BME280;62304;47.662;18.324;2022-11-15T04:15:24;100578.56;;;5.74;89.46
73952;BME280;62304;47.662;18.324;2022-11-15T04:18:45;100575.22;;;5.69;89.32
73952;BME280;62304;47.662;18.324;2022-11-15T04:22:26;100564.06;;;5.65;89.67
73952;BME280;62304;47.662;18.324;2022-11-15T04:26:07;100562.94;;;5.66;89.62
73952;BME280;62304;47.662;18.324;2022-11-15T04:29:30;100569.44;;;5.62;89.83
73952;BME280;62304;47.662;18.324;2022-11-15T04:32:56;100568.66;;;5.53;89.73
73952;BME280;62304;47.662;18.324;2022-11-15T04:36:18;100573.38;;;5.44;90.79
73952;BME280;62304;47.662;18.324;2022-11-15T04:39:58;100573.03;;;5.54;90.53
73952;BME280;62304;47.662;18.324;2022-11-15T04:43:19;100582.09;;;5.54;91.16
73952;BME280;62304;47.662;18.324;2022-11-15T04:46:40;100578.81;;;5.61;90.69
73952;BME280;62304;47.662;18.324;2022-11-15T04:50:01;100578.56;;;5.74;90.96
73952;BME280;62304;47.662;18.324;2022-11-15T04:53:22;100579.75;;;5.65;91.16
73952;BME280;62304;47.662;18.324;2022-11-15T04:56:44;100570.38;;;5.66;91.26
73952;BME280;62304;47.662;18.324;2022-11-15T05:00:08;100567.09;;;5.72;90.87
73952;BME280;62304;47.662;18.324;2022-11-15T05:03:29;100570.53;;;5.61;91.13
73952;BME280;62304;47.662;18.324;2022-11-15T05:07:09;100561.72;;;5.47;91.65
73952;BME280;62304;47.662;18.324;2022-11-15T05:10:30;100563.31;;;5.56;91.15
73952;BME280;62304;47.662;18.324;2022-11-15T05:13:52;100563.47;;;5.51;90.99
73952;BME280;62304;47.662;18.324;2022-11-15T05:17:13;100570.72;;;5.56;90.96
73952;BME280;62304;47.662;18.324;2022-11-15T05:20:34;100554.75;;;5.78;90.07
73952;BME280;62304;47.662;18.324;2022-11-15T05:23:55;100555.56;;;5.50;90.72
73952;BME280;62304;47.662;18.324;2022-11-15T05:27:16;100548.97;;;5.71;90.19
73952;BME280;62304;47.662;18.324;2022-11-15T05:30:38;100553.84;;;5.66;90.12
73952;BME280;62304;47.662;18.324;2022-11-15T05:34:04;100557.22;;;5.71;89.98
73952;BME280;62304;47.662;18.324;2022-11-15T05:37:26;100550.25;;;5.74;90.18
73952;BME280;62304;47.662;18.324;2022-11-15T05:40:49;100546.41;;;5.66;90.57
73952;BME280;62304;47.662;18.324;2022-11-15T05:44:13;100544.31;;;5.34;91.87
73952;BME280;62304;47.662;18.324;2022-11-15T05:47:36;100542.09;;;5.57;91.38
73952;BME280;62304;47.662;18.324;2022-11-15T05:51:01;100543.00;;;5.40;92.12
73952;BME280;62304;47.662;18.324;2022-11-15T05:54:23;100535.41;;;5.37;92.76
73952;BME280;62304;47.662;18.324;2022-11-15T05:57:45;100541.28;;;5.56;92.30
73952;BME280;62304;47.662;18.324;2022-11-15T06:01:06;100550.69;;;5.84;91.67
73952;BME280;62304;47.662;18.324;2022-11-15T06:04:27;100534.69;;;5.86;91.29
73952;BME280;62304;47.662;18.324;2022-11-15T06:07:48;100530.16;;;5.82;91.75
73952;BME280;62304;47.662;18.324;2022-11-15T06:11:09;100531.31;;;6.01;91.36
73952;BME280;62304;47.662;18.324;2022-11-15T06:14:31;100526.56;;;6.10;91.14
73952;BME280;62304;47.662;18.324;2022-11-15T06:17:52;100534.56;;;6.03;91.77
73952;BME280;62304;47.662;18.324;2022-11-15T06:21:18;100539.09;;;5.99;91.80
73952;BME280;62304;47.662;18.324;2022-11-15T06:24:39;100530.44;;;6.09;91.73
73952;BME280;62304;47.662;18.324;2022-11-15T06:28:00;100530.72;;;6.16;91.34
73952;BME280;62304;47.662;18.324;2022-11-15T06:31:21;100534.28;;;6.17;91.62
73952;BME280;62304;47.662;18.324;2022-11-15T06:34:42;100530.72;;;6.16;91.81
73952;BME280;62304;47.662;18.324;2022-11-15T06:38:09;100532.31;;;6.17;92.40
73952;BME280;62304;47.662;18.324;2022-11-15T06:41:33;100528.53;;;6.22;92.38
73952;BME280;62304;47.662;18.324;2022-11-15T06:44:54;100531.91;;;6.27;92.40
73952;BME280;62304;47.662;18.324;2022-11-15T06:48:16;100536.06;;;6.33;92.30
73952;BME280;62304;47.662;18.324;2022-11-15T06:51:37;100537.28;;;6.44;92.09
73952;BME280;62304;47.662;18.324;2022-11-15T06:54:59;100538.87;;;6.45;91.94
73952;BME280;62304;47.662;18.324;2022-11-15T06:58:21;100529.00;;;6.44;92.46
73952;BME280;62304;47.662;18.324;2022-11-15T07:01:42;100532.50;;;6.53;92.37
73952;BME280;62304;47.662;18.324;2022-11-15T07:05:04;100533.69;;;6.64;92.20
73952;BME280;62304;47.662;18.324;2022-11-15T07:08:27;100522.56;;;6.73;92.03
73952;BME280;62304;47.662;18.324;2022-11-15T07:11:49;100532.81;;;6.84;91.72
73952;BME280;62304;47.662;18.324;2022-11-15T07:15:10;100524.81;;;6.91;91.98
73952;BME280;62304;47.662;18.324;2022-11-15T07:18:31;100521.59;;;7.01;91.97
73952;BME280;62304;47.662;18.324;2022-11-15T07:21:54;100517.12;;;7.09;91.75
73952;BME280;62304;47.662;18.324;2022-11-15T07:25:15;100523.00;;;7.07;91.53
73952;BME280;62304;47.662;18.324;2022-11-15T07:28:37;100525.16;;;7.02;91.61
73952;BME280;62304;47.662;18.324;2022-11-15T07:31:58;100530.22;;;7.00;92.17
73952;BME280;62304;47.662;18.324;2022-11-15T07:35:20;100532.84;;;6.96;93.17
73952;BME280;62304;47.662;18.324;2022-11-15T07:38:41;100524.22;;;6.98;92.83
73952;BME280;62304;47.662;18.324;2022-11-15T07:42:03;100521.13;;;6.99;93.44
73952;BME280;62304;47.662;18.324;2022-11-15T07:45:44;100508.97;;;7.12;93.69
73952;BME280;62304;47.662;18.324;2022-11-15T07:49:05;100509.66;;;7.21;93.75
73952;BME280;62304;47.662;18.324;2022-11-15T07:52:27;100508.19;;;7.24;94.09
73952;BME280;62304;47.662;18.324;2022-11-15T07:55:48;100515.66;;;7.35;93.65
73952;BME280;62304;47.662;18.324;2022-11-15T07:59:10;100507.50;;;7.39;93.61
73952;BME280;62304;47.662;18.324;2022-11-15T08:02:32;100501.50;;;7.37;94.00
73952;BME280;62304;47.662;18.324;2022-11-15T08:05:53;100503.25;;;7.41;94.11
73952;BME280;62304;47.662;18.324;2022-11-15T08:09:14;100501.53;;;7.49;94.62
73952;BME280;62304;47.662;18.324;2022-11-15T08:12:35;100494.00;;;7.61;94.60
73952;BME280;62304;47.662;18.324;2022-11-15T08:15:58;100486.41;;;7.70;93.36
73952;BME280;62304;47.662;18.324;2022-11-15T08:19:22;100477.44;;;7.73;93.95
73952;BME280;62304;47.662;18.324;2022-11-15T08:22:43;100481.78;;;7.86;93.87
73952;BME280;62304;47.662;18.324;2022-11-15T08:26:04;100480.41;;;7.92;94.38
73952;BME280;62304;47.662;18.324;2022-11-15T08:29:26;100474.16;;;8.07;93.66
73952;BME280;62304;47.662;18.324;2022-11-15T08:32:48;100468.69;;;8.23;93.52
73952;BME280;62304;47.662;18.324;2022-11-15T08:36:14;100465.34;;;8.29;94.21
73952;BME280;62304;47.662;18.324;2022-11-15T08:39:36;100454.47;;;8.36;94.05
73952;BME280;62304;47.662;18.324;2022-11-15T08:42:58;100459.03;;;8.44;94.15
73952;BME280;62304;47.662;18.324;2022-11-15T08:46:23;100458.78;;;8.49;94.55
73952;BME280;62304;47.662;18.324;2022-11-15T08:49:44;100444.78;;;8.58;94.36
73952;BME280;62304;47.662;18.324;2022-11-15T08:53:07;100446.44;;;8.74;93.64
73952;BME280;62304;47.662;18.324;2022-11-15T08:56:29;100453.31;;;8.80;93.15
73952;BME280;62304;47.662;18.324;2022-11-15T08:59:50;100443.59;;;8.86;93.22
73952;BME280;62304;47.662;18.324;2022-11-15T09:03:11;100452.69;;;9.02;92.71
73952;BME280;62304;47.662;18.324;2022-11-15T09:06:32;100458.13;;;9.14;91.86
73952;BME280;62304;47.662;18.324;2022-11-15T09:09:53;100451.97;;;9.21;91.36
73952;BME280;62304;47.662;18.324;2022-11-15T09:13:14;100458.09;;;9.30;91.06
73952;BME280;62304;47.662;18.324;2022-11-15T09:16:37;100455.97;;;9.39;90.38
73952;BME280;62304;47.662;18.324;2022-11-15T09:19:59;100459.28;;;9.44;90.77
73952;BME280;62304;47.662;18.324;2022-11-15T09:23:21;100451.13;;;9.51;90.03
73952;BME280;62304;47.662;18.324;2022-11-15T09:26:42;100440.34;;;9.65;88.69
73952;BME280;62304;47.662;18.324;2022-11-15T09:30:03;100438.19;;;9.74;88.09
73952;BME280;62304;47.662;18.324;2022-11-15T09:33:25;100435.97;;;9.80;87.42
73952;BME280;62304;47.662;18.324;2022-11-15T09:36:46;100431.34;;;9.87;86.75
73952;BME280;62304;47.662;18.324;2022-11-15T09:40:13;100433.63;;;10.01;86.76
73952;BME280;62304;47.662;18.324;2022-11-15T09:50:15;100405.47;;;9.99;85.22
73952;BME280;62304;47.662;18.324;2022-11-15T09:53:25;100405.88;;;10.16;85.04
73952;BME280;62304;47.662;18.324;2022-11-15T09:56:50;100399.50;;;10.35;84.99
73952;BME280;62304;47.662;18.324;2022-11-15T10:03:30;100400.50;;;10.46;83.89
73952;BME280;62304;47.662;18.324;2022-11-15T10:06:40;100398.41;;;10.39;83.18
73952;BME280;62304;47.662;18.324;2022-11-15T10:13:26;100395.75;;;10.24;82.83
73952;BME280;62304;47.662;18.324;2022-11-15T10:17:11;100394.94;;;10.23;82.56
73952;BME280;62304;47.662;18.324;2022-11-15T10:20:28;100386.44;;;9.97;83.08
73952;BME280;62304;47.662;18.324;2022-11-15T10:23:31;100382.16;;;9.81;83.33
73952;BME280;62304;47.662;18.324;2022-11-15T10:26:34;100376.37;;;9.70;83.52
73952;BME280;62304;47.662;18.324;2022-11-15T10:29:43;100370.78;;;9.67;83.53
73952;BME280;62304;47.662;18.324;2022-11-15T10:32:47;100358.09;;;9.66;83.54
73952;BME280;62304;47.662;18.324;2022-11-15T10:36:25;100353.50;;;9.73;84.78
73952;BME280;62304;47.662;18.324;2022-11-15T10:39:29;100350.81;;;9.77;84.06
73952;BME280;62304;47.662;18.324;2022-11-15T10:42:32;100353.56;;;9.77;83.09
73952;BME280;62304;47.662;18.324;2022-11-15T10:45:34;100339.38;;;9.78;84.11
73952;BME280;62304;47.662;18.324;2022-11-15T10:48:38;100331.28;;;9.70;83.92
73952;BME280;62304;47.662;18.324;2022-11-15T10:51:44;100327.84;;;9.76;84.19
73952;BME280;62304;47.662;18.324;2022-11-15T10:58:22;100322.16;;;9.88;83.80
73952;BME280;62304;47.662;18.324;2022-11-15T11:01:28;100317.03;;;10.09;83.39
73952;BME280;62304;47.662;18.324;2022-11-15T11:04:56;100312.88;;;10.19;83.23
73952;BME280;62304;47.662;18.324;2022-11-15T11:08:23;100311.22;;;10.37;83.02
73952;BME280;62304;47.662;18.324;2022-11-15T11:11:47;100307.63;;;10.36;82.31
73952;BME280;62304;47.662;18.324;2022-11-15T11:14:50;100312.47;;;10.39;81.92
73952;BME280;62304;47.662;18.324;2022-11-15T11:18:07;100309.06;;;10.49;82.25
73952;BME280;62304;47.662;18.324;2022-11-15T11:21:22;100307.69;;;10.40;81.86
73952;BME280;62304;47.662;18.324;2022-11-15T11:24:44;100303.31;;;10.39;82.16
73952;BME280;62304;47.662;18.324;2022-11-15T11:28:21;100302.66;;;10.23;82.10
73952;BME280;62304;47.662;18.324;2022-11-15T11:41:42;100284.06;;;10.23;80.90
73952;BME280;62304;47.662;18.324;2022-11-15T11:45:11;100281.09;;;9.94;81.11
73952;BME280;62304;47.662;18.324;2022-11-15T11:48:38;100274.09;;;10.00;81.15
73952;BME280;62304;47.662;18.324;2022-11-15T11:52:02;100267.47;;;10.04;80.85
73952;BME280;62304;47.662;18.324;2022-11-15T11:58:41;100261.56;;;10.06;80.82
73952;BME280;62304;47.662;18.324;2022-11-15T12:01:45;100256.59;;;9.96;81.35
73952;BME280;62304;47.662;18.324;2022-11-15T12:04:51;100248.09;;;9.85;81.43
73952;BME280;62304;47.662;18.324;2022-11-15T12:08:02;100240.97;;;9.84;81.58
73952;BME280;62304;47.662;18.324;2022-11-15T12:11:14;100235.06;;;9.86;81.49
73952;BME280;62304;47.662;18.324;2022-11-15T12:14:26;100231.00;;;9.80;81.73
73952;BME280;62304;47.662;18.324;2022-11-15T12:17:31;100227.28;;;9.72;81.91
73952;BME280;62304;47.662;18.324;2022-11-15T12:20:39;100212.69;;;9.75;82.19
73952;BME280;62304;47.662;18.324;2022-11-15T12:23:48;100210.28;;;9.74;83.24
73952;BME280;62304;47.662;18.324;2022-11-15T12:30:19;100214.50;;;9.87;81.93
73952;BME280;62304;47.662;18.324;2022-11-15T12:33:34;100209.72;;;9.87;81.96
73952;BME280;62304;47.662;18.324;2022-11-15T12:36:40;100207.34;;;9.86;81.66
73952;BME280;62304;47.662;18.324;2022-11-15T12:43:40;100203.13;;;9.50;82.29
73952;BME280;62304;47.662;18.324;2022-11-15T12:49:46;100194.75;;;9.47;82.67
73952;BME280;62304;47.662;18.324;2022-11-15T12:56:27;100189.00;;;9.36;82.94
73952;BME280;62304;47.662;18.324;2022-11-15T13:03:18;100177.78;;;9.29;83.19
73952;BME280;62304;47.662;18.324;2022-11-15T13:07:01;100184.50;;;9.28;83.43
73952;BME280;62304;47.662;18.324;2022-11-15T13:13:44;100176.66;;;9.11;84.02
73952;BME280;62304;47.662;18.324;2022-11-15T13:16:57;100163.88;;;9.07;84.23
73952;BME280;62304;47.662;18.324;2022-11-15T13:23:12;100159.88;;;9.04;84.55
73952;BME280;62304;47.662;18.324;2022-11-15T13:26:17;100147.22;;;9.03;84.61
73952;BME280;62304;47.662;18.324;2022-11-15T13:29:20;100158.28;;;9.03;84.89
73952;BME280;62304;47.662;18.324;2022-11-15T13:32:23;100141.69;;;9.03;85.06
73952;BME280;62304;47.662;18.324;2022-11-15T13:35:28;100134.34;;;9.11;85.64
73952;BME280;62304;47.662;18.324;2022-11-15T13:38:34;100126.91;;;9.15;85.15
73952;BME280;62304;47.662;18.324;2022-11-15T13:41:47;100134.28;;;9.30;84.90
73952;BME280;62304;47.662;18.324;2022-11-15T13:45:00;100125.91;;;9.45;84.16
73952;BME280;62304;47.662;18.324;2022-11-15T13:48:03;100116.13;;;9.51;83.60
73952;BME280;62304;47.662;18.324;2022-11-15T13:51:24;100118.16;;;9.54;83.91
73952;BME280;62304;47.662;18.324;2022-11-15T13:54:43;100102.41;;;9.58;83.72
73952;BME280;62304;47.662;18.324;2022-11-15T13:57:57;100109.78;;;9.73;83.61
73952;BME280;62304;47.662;18.324;2022-11-15T14:01:03;100097.75;;;9.62;83.55
73952;BME280;62304;47.662;18.324;2022-11-15T14:04:12;100098.34;;;9.75;83.36
73952;BME280;62304;47.662;18.324;2022-11-15T14:07:22;100089.38;;;9.85;82.92
73952;BME280;62304;47.662;18.324;2022-11-15T14:10:36;100095.38;;;9.87;82.88
73952;BME280;62304;47.662;18.324;2022-11-15T14:13:40;100094.16;;;9.84;83.82
73952;BME280;62304;47.662;18.324;2022-11-15T14:17:00;100100.56;;;9.88;83.29
73952;BME280;62304;47.662;18.324;2022-11-15T14:20:19;100101.44;;;9.96;83.08
73952;BME280;62304;47.662;18.324;2022-11-15T14:26:29;100093.28;;;9.80;83.46
73952;BME280;62304;47.662;18.324;2022-11-15T14:29:32;100094.16;;;9.62;84.00
73952;BME280;62304;47.662;18.324;2022-11-15T14:32:47;100102.91;;;9.41;84.65
73952;BME280;62304;47.662;18.324;2022-11-15T14:35:52;100099.44;;;9.25;85.12
73952;BME280;62304;47.662;18.324;2022-11-15T14:38:54;100098.37;;;9.11;85.58
73952;BME280;62304;47.662;18.324;2022-11-15T14:41:58;100096.25;;;9.04;85.59
73952;BME280;62304;47.662;18.324;2022-11-15T14:45:01;100096.72;;;8.87;86.23
73952;BME280;62304;47.662;18.324;2022-11-15T14:48:04;100098.97;;;8.82;86.64
73952;BME280;62304;47.662;18.324;2022-11-15T14:51:16;100085.94;;;8.82;86.61
73952;BME280;62304;47.662;18.324;2022-11-15T14:54:19;100091.47;;;8.82;86.37
73952;BME280;62304;47.662;18.324;2022-11-15T14:57:23;100094.37;;;8.70;87.57
73952;BME280;62304;47.662;18.324;2022-11-15T15:00:27;100075.31;;;8.65;87.63
73952;BME280;62304;47.662;18.324;2022-11-15T15:03:36;100077.72;;;8.67;88.32
73952;BME280;62304;47.662;18.324;2022-11-15T15:06:39;100084.06;;;8.67;88.13
73952;BME280;62304;47.662;18.324;2022-11-15T15:09:43;100082.03;;;8.64;88.11
73952;BME280;62304;47.662;18.324;2022-11-15T15:12:47;100083.97;;;8.64;87.87
73952;BME280;62304;47.662;18.324;2022-11-15T15:15:51;100074.59;;;8.68;88.05
73952;BME280;62304;47.662;18.324;2022-11-15T15:18:55;100077.44;;;8.72;87.80
73952;BME280;62304;47.662;18.324;2022-11-15T15:21:58;100071.69;;;8.80;87.44
73952;BME280;62304;47.662;18.324;2022-11-15T15:25:21;100078.03;;;8.81;87.45
73952;BME280;62304;47.662;18.324;2022-11-15T15:28:24;100071.31;;;8.82;87.65
73952;BME280;62304;47.662;18.324;2022-11-15T15:31:35;100078.09;;;8.84;87.48
73952;BME280;62304;47.662;18.324;2022-11-15T15:34:38;100074.53;;;8.84;87.18
73952;BME280;62304;47.662;18.324;2022-11-15T15:37:44;100076.62;;;8.71;87.27
73952;BME280;62304;47.662;18.324;2022-11-15T15:40:47;100071.25;;;8.59;87.91
73952;BME280;62304;47.662;18.324;2022-11-15T15:43:53;100079.81;;;8.54;88.21
73952;BME280;62304;47.662;18.324;2022-11-15T15:46:55;100083.16;;;8.44;88.52
73952;BME280;62304;47.662;18.324;2022-11-15T15:50:00;100079.97;;;8.42;88.53
73952;BME280;62304;47.662;18.324;2022-11-15T15:53:04;100076.59;;;8.33;89.42
73952;BME280;62304;47.662;18.324;2022-11-15T15:56:08;100070.50;;;8.24;89.41
73952;BME280;62304;47.662;18.324;2022-11-15T15:59:11;100078.34;;;8.22;89.75
73952;BME280;62304;47.662;18.324;2022-11-15T16:02:14;100073.38;;;8.12;90.15
73952;BME280;62304;47.662;18.324;2022-11-15T16:05:17;100070.50;;;8.09;90.33
73952;BME280;62304;47.662;18.324;2022-11-15T16:08:22;100077.84;;;8.01;90.73
73952;BME280;62304;47.662;18.324;2022-11-15T16:11:26;100067.50;;;7.98;90.75
73952;BME280;62304;47.662;18.324;2022-11-15T16:14:28;100075.09;;;8.01;90.54
73952;BME280;62304;47.662;18.324;2022-11-15T16:17:33;100073.25;;;8.09;90.29
73952;BME280;62304;47.662;18.324;2022-11-15T16:20:48;100062.78;;;7.99;90.53
73952;BME280;62304;47.662;18.324;2022-11-15T16:23:59;100060.72;;;7.96;90.74
73952;BME280;62304;47.662;18.324;2022-11-15T16:27:02;100051.75;;;7.99;90.54
73952;BME280;62304;47.662;18.324;2022-11-15T16:30:14;100050.03;;;7.94;90.65
73952;BME280;62304;47.662;18.324;2022-11-15T16:33:17;100041.75;;;7.94;90.94
73952;BME280;62304;47.662;18.324;2022-11-15T16:36:26;100045.41;;;7.98;90.48
73952;BME280;62304;47.662;18.324;2022-11-15T16:39:32;100042.44;;;8.07;90.37
73952;BME280;62304;47.662;18.324;2022-11-15T16:42:41;100037.94;;;7.99;90.57
73952;BME280;62304;47.662;18.324;2022-11-15T16:45:44;100035.06;;;7.95;90.57
73952;BME280;62304;47.662;18.324;2022-11-15T16:48:48;100041.47;;;7.99;90.78
73952;BME280;62304;47.662;18.324;2022-11-15T16:51:54;100044.53;;;7.94;90.66
73952;BME280;62304;47.662;18.324;2022-11-15T16:54:57;100034.72;;;7.97;90.69
73952;BME280;62304;47.662;18.324;2022-11-15T16:58:00;100027.31;;;8.01;90.67
73952;BME280;62304;47.662;18.324;2022-11-15T17:01:04;100032.78;;;7.97;90.60
73952;BME280;62304;47.662;18.324;2022-11-15T17:04:09;100031.16;;;7.96;90.85
73952;BME280;62304;47.662;18.324;2022-11-15T17:07:15;100030.28;;;7.92;91.08
73952;BME280;62304;47.662;18.324;2022-11-15T17:10:22;100024.13;;;7.99;91.06
73952;BME280;62304;47.662;18.324;2022-11-15T17:13:26;100024.75;;;7.92;91.23
73952;BME280;62304;47.662;18.324;2022-11-15T17:16:31;100020.97;;;8.00;91.04
73952;BME280;62304;47.662;18.324;2022-11-15T17:19:36;100019.09;;;8.04;90.65
73952;BME280;62304;47.662;18.324;2022-11-15T17:22:39;100020.78;;;8.09;90.45
73952;BME280;62304;47.662;18.324;2022-11-15T17:25:42;100025.53;;;8.08;90.52
73952;BME280;62304;47.662;18.324;2022-11-15T17:28:45;100020.97;;;8.00;91.15
73952;BME280;62304;47.662;18.324;2022-11-15T17:31:48;100006.19;;;8.08;90.81
73952;BME280;62304;47.662;18.324;2022-11-15T17:34:51;100006.69;;;8.14;90.38
73952;BME280;62304;47.662;18.324;2022-11-15T17:37:54;100009.84;;;8.12;90.38
73952;BME280;62304;47.662;18.324;2022-11-15T17:44:04;100001.66;;;8.00;90.71
73952;BME280;62304;47.662;18.324;2022-11-15T17:47:06;99993.28;;;7.97;90.88
73952;BME280;62304;47.662;18.324;2022-11-15T17:50:10;99993.56;;;7.92;91.04
73952;BME280;62304;47.662;18.324;2022-11-15T17:53:13;99994.66;;;7.87;91.35
73952;BME280;62304;47.662;18.324;2022-11-15T17:56:18;99992.03;;;7.75;91.85
73952;BME280;62304;47.662;18.324;2022-11-15T17:59:21;99991.88;;;7.68;92.09
73952;BME280;62304;47.662;18.324;2022-11-15T18:02:24;99998.09;;;7.65;92.30
73952;BME280;62304;47.662;18.324;2022-11-15T18:05:27;99996.78;;;7.59;92.71
73952;BME280;62304;47.662;18.324;2022-11-15T18:08:30;100002.72;;;7.61;92.72
73952;BME280;62304;47.662;18.324;2022-11-15T18:11:38;99984.56;;;7.60;92.45
73952;BME280;62304;47.662;18.324;2022-11-15T18:14:42;99982.56;;;7.57;92.72
73952;BME280;62304;47.662;18.324;2022-11-15T18:17:45;99984.41;;;7.53;93.00
73952;BME280;62304;47.662;18.324;2022-11-15T18:20:48;99984.06;;;7.55;92.97
73952;BME280;62304;47.662;18.324;2022-11-15T18:23:53;99979.78;;;7.57;92.78
73952;BME280;62304;47.662;18.324;2022-11-15T18:26:59;99984.16;;;7.58;92.97
73952;BME280;62304;47.662;18.324;2022-11-15T18:30:04;99979.88;;;7.61;92.66
73952;BME280;62304;47.662;18.324;2022-11-15T18:33:07;99968.84;;;7.61;92.64
73952;BME280;62304;47.662;18.324;2022-11-15T18:36:14;99962.16;;;7.62;92.58
73952;BME280;62304;47.662;18.324;2022-11-15T18:39:17;99964.97;;;7.65;92.53
73952;BME280;62304;47.662;18.324;2022-11-15T18:42:23;99970.44;;;7.62;92.67
73952;BME280;62304;47.662;18.324;2022-11-15T18:45:28;99967.38;;;7.67;92.55